sensor_id;sensor_type;location;lat;lon;timestamp;temperature;humidity
14349;DHT22;7258;50.376;8.742;2022-11-20T00:01:56;0.30;99.90
14349;DHT22;7258;50.376;8.742;2022-11-20T00:04:01;0.30;99.90
14349;DHT22;7258;50.376;8.742;2022-11-20T00:06:05;0.20;99.90
14349;DHT22;7258;50.376;8.742;2022-11-20T00:08:08;0.20;99.90
14349;DHT22;7258;50.376;8.742;2022-11-20T00:10:12;0.20;99.90
14349;DHT22;7258;50.376;8.742;2022-11-20T00:12:15;0.20;99.90
14349;DHT22;7258;50.376;8.742;2022-11-20T00:14:18;0.20;99.90
14349;DHT22;7258;50.376;8.742;2022-11-20T00:16:22;0.20;99.90
14349;DHT22;7258;50.376;8.742;2022-11-20T00:18:26;0.10;99.90
14349;DHT22;7258;50.376;8.742;2022-11-20T00:20:31;0.10;99.90
14349;DHT22;7258;50.376;8.742;2022-11-20T00:22:34;0.10;99.90
14349;DHT22;7258;50.376;8.742;2022-11-20T00:24:37;0.10;99.90
14349;DHT22;7258;50.376;8.742;2022-11-20T00:26:44;0.10;99.90
14349;DHT22;7258;50.376;8.742;2022-11-20T00:28:49;0.00;99.90
14349;DHT22;7258;50.376;8.742;2022-11-20T00:30:52;0.10;99.90
14349;DHT22;7258;50.376;8.742;2022-11-20T00:32:56;0.10;99.90
14349;DHT22;7258;50.376;8.742;2022-11-20T00:34:59;0.10;99.90
14349;DHT22;7258;50.376;8.742;2022-11-20T00:40:11;0.10;99.90
14349;DHT22;7258;50.376;8.742;2022-11-20T00:42:56;0.10;99.90
14349;DHT22;7258;50.376;8.742;2022-11-20T00:45:32;0.20;99.90
14349;DHT22;7258;50.376;8.742;2022-11-20T00:47:54;0.20;99.90
14349;DHT22;7258;50.376;8.742;2022-11-20T00:50:16;0.20;99.90
14349;DHT22;7258;50.376;8.742;2022-11-20T00:52:56;0.10;99.90
14349;DHT22;7258;50.376;8.742;2022-11-20T00:55:06;0.10;99.90
14349;DHT22;7258;50.376;8.742;2022-11-20T01:00:17;0.20;99.90
14349;DHT22;7258;50.376;8.742;2022-11-20T01:02:20;0.10;99.90
14349;DHT22;7258;50.376;8.742;2022-11-20T01:04:22;0.10;99.90
14349;DHT22;7258;50.376;8.742;2022-11-20T01:06:27;0.10;99.90
14349;DHT22;7258;50.376;8.742;2022-11-20T01:08:32;0.10;99.90
14349;DHT22;7258;50.376;8.742;2022-11-20T01:10:35;0.10;99.90
14349;DHT22;7258;50.376;8.742;2022-11-20T01:12:38;0.10;99.90
14349;DHT22;7258;50.376;8.742;2022-11-20T01:14:40;0.10;99.90
14349;DHT22;7258;50.376;8.742;2022-11-20T01:16:46;0.10;99.90
14349;DHT22;7258;50.376;8.742;2022-11-20T01:18:51;0.00;99.90
14349;DHT22;7258;50.376;8.742;2022-11-20T01:20:54;0.00;99.90
14349;DHT22;7258;50.376;8.742;2022-11-20T01:22:56;0.00;99.90
14349;DHT22;7258;50.376;8.742;2022-11-20T01:25:00;0.00;99.90
14349;DHT22;7258;50.376;8.742;2022-11-20T01:27:03;0.00;99.90
14349;DHT22;7258;50.376;8.742;2022-11-20T01:29:07;0.00;99.90
14349;DHT22;7258;50.376;8.742;2022-11-20T01:31:11;0.00;99.90
14349;DHT22;7258;50.376;8.742;2022-11-20T01:33:14;0.10;99.90
14349;DHT22;7258;50.376;8.742;2022-11-20T01:35:17;0.10;99.90
14349;DHT22;7258;50.376;8.742;2022-11-20T01:37:20;0.10;99.90
14349;DHT22;7258;50.376;8.742;2022-11-20T01:39:24;0.10;99.90
14349;DHT22;7258;50.376;8.742;2022-11-20T01:41:30;0.10;99.90
14349;DHT22;7258;50.376;8.742;2022-11-20T01:43:51;0.10;99.90
14349;DHT22;7258;50.376;8.742;2022-11-20T01:46:00;0.10;99.90
14349;DHT22;7258;50.376;8.742;2022-11-20T01:48:03;0.10;99.90
14349;DHT22;7258;50.376;8.742;2022-11-20T01:50:11;0.10;99.90
14349;DHT22;7258;50.376;8.742;2022-11-20T01:52:18;0.10;99.90
14349;DHT22;7258;50.376;8.742;2022-11-20T01:54:24;0.10;99.90
14349;DHT22;7258;50.376;8.742;2022-11-20T01:56:31;0.10;99.90
14349;DHT22;7258;50.376;8.742;2022-11-20T01:58:39;0.10;99.90
14349;DHT22;7258;50.376;8.742;2022-11-20T02:00:44;0.10;99.90
14349;DHT22;7258;50.376;8.742;2022-11-20T02:02:49;0.10;99.90
14349;DHT22;7258;50.376;8.742;2022-11-20T02:04:56;0.10;99.90
14349;DHT22;7258;50.376;8.742;2022-11-20T02:07:04;0.10;99.90
14349;DHT22;7258;50.376;8.742;2022-11-20T02:09:10;0.10;99.90
14349;DHT22;7258;50.376;8.742;2022-11-20T02:11:13;0.10;99.90
14349;DHT22;7258;50.376;8.742;2022-11-20T02:13:17;0.10;99.90
14349;DHT22;7258;50.376;8.742;2022-11-20T02:15:49;0.10;99.90
14349;DHT22;7258;50.376;8.742;2022-11-20T02:17:53;0.10;99.90
14349;DHT22;7258;50.376;8.742;2022-11-20T02:19:56;0.00;99.90
14349;DHT22;7258;50.376;8.742;2022-11-20T02:22:02;0.00;99.90
14349;DHT22;7258;50.376;8.742;2022-11-20T02:24:12;0.00;99.90
14349;DHT22;7258;50.376;8.742;2022-11-20T02:26:16;0.10;99.90
14349;DHT22;7258;50.376;8.742;2022-11-20T02:28:19;0.10;99.90
14349;DHT22;7258;50.376;8.742;2022-11-20T02:30:22;0.00;99.90
14349;DHT22;7258;50.376;8.742;2022-11-20T02:32:26;0.10;99.90
14349;DHT22;7258;50.376;8.742;2022-11-20T02:34:29;0.00;99.90
14349;DHT22;7258;50.376;8.742;2022-11-20T02:36:34;0.10;99.90
14349;DHT22;7258;50.376;8.742;2022-11-20T02:38:38;0.00;99.90
14349;DHT22;7258;50.376;8.742;2022-11-20T02:40:42;0.00;99.90
14349;DHT22;7258;50.376;8.742;2022-11-20T02:42:45;0.00;99.90
14349;DHT22;7258;50.376;8.742;2022-11-20T02:44:47;0.10;99.90
14349;DHT22;7258;50.376;8.742;2022-11-20T02:46:50;0.10;99.90
14349;DHT22;7258;50.376;8.742;2022-11-20T02:48:53;0.10;99.90
14349;DHT22;7258;50.376;8.742;2022-11-20T02:50:56;0.10;99.90
14349;DHT22;7258;50.376;8.742;2022-11-20T02:52:59;0.10;99.90
14349;DHT22;7258;50.376;8.742;2022-11-20T02:55:02;0.10;99.90
14349;DHT22;7258;50.376;8.742;2022-11-20T02:57:06;0.10;99.90
14349;DHT22;7258;50.376;8.742;2022-11-20T02:59:09;0.10;99.90
14349;DHT22;7258;50.376;8.742;2022-11-20T03:01:12;0.10;99.90
14349;DHT22;7258;50.376;8.742;2022-11-20T03:03:15;0.10;99.90
14349;DHT22;7258;50.376;8.742;2022-11-20T03:05:18;0.10;99.90
14349;DHT22;7258;50.376;8.742;2022-11-20T03:07:21;0.10;99.90
14349;DHT22;7258;50.376;8.742;2022-11-20T03:09:24;0.10;99.90
14349;DHT22;7258;50.376;8.742;2022-11-20T03:11:27;0.20;99.90
14349;DHT22;7258;50.376;8.742;2022-11-20T03:13:32;0.20;99.90
14349;DHT22;7258;50.376;8.742;2022-11-20T03:15:35;0.20;99.90
14349;DHT22;7258;50.376;8.742;2022-11-20T03:17:38;0.20;99.90
14349;DHT22;7258;50.376;8.742;2022-11-20T03:19:41;0.20;99.90
14349;DHT22;7258;50.376;8.742;2022-11-20T03:21:44;0.20;99.90
14349;DHT22;7258;50.376;8.742;2022-11-20T03:23:47;0.20;99.90
14349;DHT22;7258;50.376;8.742;2022-11-20T03:25:50;0.10;99.90
14349;DHT22;7258;50.376;8.742;2022-11-20T03:27:53;0.10;99.90
14349;DHT22;7258;50.376;8.742;2022-11-20T03:29:57;0.20;99.90
14349;DHT22;7258;50.376;8.742;2022-11-20T03:32:00;0.20;99.90
14349;DHT22;7258;50.376;8.742;2022-11-20T03:34:03;0.10;99.90
14349;DHT22;7258;50.376;8.742;2022-11-20T03:36:08;0.10;99.90
14349;DHT22;7258;50.376;8.742;2022-11-20T03:38:12;0.10;99.90
14349;DHT22;7258;50.376;8.742;2022-11-20T03:40:14;0.10;99.90
14349;DHT22;7258;50.376;8.742;2022-11-20T03:42:17;0.10;99.90
14349;DHT22;7258;50.376;8.742;2022-11-20T03:44:38;0.10;99.90
14349;DHT22;7258;50.376;8.742;2022-11-20T03:46:42;0.10;99.90
14349;DHT22;7258;50.376;8.742;2022-11-20T03:48:45;0.10;99.90
14349;DHT22;7258;50.376;8.742;2022-11-20T03:50:52;0.10;99.90
14349;DHT22;7258;50.376;8.742;2022-11-20T03:52:56;0.10;99.90
14349;DHT22;7258;50.376;8.742;2022-11-20T03:54:58;0.10;99.90
14349;DHT22;7258;50.376;8.742;2022-11-20T03:57:01;0.10;99.90
14349;DHT22;7258;50.376;8.742;2022-11-20T03:59:04;0.10;99.90
14349;DHT22;7258;50.376;8.742;2022-11-20T04:01:09;0.20;99.90
14349;DHT22;7258;50.376;8.742;2022-11-20T04:03:13;0.20;99.90
14349;DHT22;7258;50.376;8.742;2022-11-20T04:05:16;0.20;99.90
14349;DHT22;7258;50.376;8.742;2022-11-20T04:07:19;0.20;99.90
14349;DHT22;7258;50.376;8.742;2022-11-20T04:09:21;0.20;99.90
14349;DHT22;7258;50.376;8.742;2022-11-20T04:11:26;0.20;99.90
14349;DHT22;7258;50.376;8.742;2022-11-20T04:13:29;0.20;99.90
14349;DHT22;7258;50.376;8.742;2022-11-20T04:15:32;0.20;99.90
14349;DHT22;7258;50.376;8.742;2022-11-20T04:17:39;0.30;99.90
14349;DHT22;7258;50.376;8.742;2022-11-20T04:19:43;0.30;99.90
14349;DHT22;7258;50.376;8.742;2022-11-20T04:21:46;0.30;99.90
14349;DHT22;7258;50.376;8.742;2022-11-20T04:23:48;0.40;99.90
14349;DHT22;7258;50.376;8.742;2022-11-20T04:25:52;0.40;99.90
14349;DHT22;7258;50.376;8.742;2022-11-20T04:27:55;0.40;99.90
14349;DHT22;7258;50.376;8.742;2022-11-20T04:29:57;0.30;99.90
14349;DHT22;7258;50.376;8.742;2022-11-20T04:32:00;0.30;99.90
14349;DHT22;7258;50.376;8.742;2022-11-20T04:34:05;0.30;99.90
14349;DHT22;7258;50.376;8.742;2022-11-20T04:36:12;0.30;99.90
14349;DHT22;7258;50.376;8.742;2022-11-20T04:38:16;0.30;99.90
14349;DHT22;7258;50.376;8.742;2022-11-20T04:40:19;0.30;99.90
14349;DHT22;7258;50.376;8.742;2022-11-20T04:42:21;0.30;99.90
14349;DHT22;7258;50.376;8.742;2022-11-20T04:44:33;0.30;99.90
14349;DHT22;7258;50.376;8.742;2022-11-20T04:46:37;0.30;99.90
14349;DHT22;7258;50.376;8.742;2022-11-20T04:48:40;0.30;99.90
14349;DHT22;7258;50.376;8.742;2022-11-20T04:50:43;0.30;99.90
14349;DHT22;7258;50.376;8.742;2022-11-20T04:52:47;0.30;99.90
14349;DHT22;7258;50.376;8.742;2022-11-20T04:54:50;0.40;99.90
14349;DHT22;7258;50.376;8.742;2022-11-20T04:56:54;0.40;99.90
14349;DHT22;7258;50.376;8.742;2022-11-20T04:59:00;0.40;99.90
14349;DHT22;7258;50.376;8.742;2022-11-20T05:01:04;0.40;99.90
14349;DHT22;7258;50.376;8.742;2022-11-20T05:03:07;0.40;99.90
14349;DHT22;7258;50.376;8.742;2022-11-20T05:05:10;0.40;99.90
14349;DHT22;7258;50.376;8.742;2022-11-20T05:07:12;0.40;99.90
14349;DHT22;7258;50.376;8.742;2022-11-20T05:09:17;0.40;99.90
14349;DHT22;7258;50.376;8.742;2022-11-20T05:11:21;0.40;99.90
14349;DHT22;7258;50.376;8.742;2022-11-20T05:13:24;0.40;99.90
14349;DHT22;7258;50.376;8.742;2022-11-20T05:15:27;0.40;99.90
14349;DHT22;7258;50.376;8.742;2022-11-20T05:17:29;0.40;99.90
14349;DHT22;7258;50.376;8.742;2022-11-20T05:19:32;0.40;99.90
14349;DHT22;7258;50.376;8.742;2022-11-20T05:21:35;0.40;99.90
14349;DHT22;7258;50.376;8.742;2022-11-20T05:23:39;0.30;99.90
14349;DHT22;7258;50.376;8.742;2022-11-20T05:25:43;0.40;99.90
14349;DHT22;7258;50.376;8.742;2022-11-20T05:27:46;0.30;99.90
14349;DHT22;7258;50.376;8.742;2022-11-20T05:29:49;0.30;99.90
14349;DHT22;7258;50.376;8.742;2022-11-20T05:31:51;0.30;99.90
14349;DHT22;7258;50.376;8.742;2022-11-20T05:33:56;0.30;99.90
14349;DHT22;7258;50.376;8.742;2022-11-20T05:36:00;0.30;99.90
14349;DHT22;7258;50.376;8.742;2022-11-20T05:38:03;0.30;99.90
14349;DHT22;7258;50.376;8.742;2022-11-20T05:40:07;0.30;99.90
14349;DHT22;7258;50.376;8.742;2022-11-20T05:42:11;0.30;99.90
14349;DHT22;7258;50.376;8.742;2022-11-20T05:44:32;0.30;99.90
14349;DHT22;7258;50.376;8.742;2022-11-20T05:46:35;0.40;99.90
14349;DHT22;7258;50.376;8.742;2022-11-20T05:48:39;0.40;99.90
14349;DHT22;7258;50.376;8.742;2022-11-20T05:50:42;0.40;99.90
14349;DHT22;7258;50.376;8.742;2022-11-20T05:52:44;0.40;99.90
14349;DHT22;7258;50.376;8.742;2022-11-20T05:54:47;0.40;99.90
14349;DHT22;7258;50.376;8.742;2022-11-20T05:56:50;0.40;99.90
14349;DHT22;7258;50.376;8.742;2022-11-20T05:58:55;0.50;99.90
14349;DHT22;7258;50.376;8.742;2022-11-20T06:01:04;0.40;99.90
14349;DHT22;7258;50.376;8.742;2022-11-20T06:03:08;0.40;99.90
14349;DHT22;7258;50.376;8.742;2022-11-20T06:05:10;0.40;99.90
14349;DHT22;7258;50.376;8.742;2022-11-20T06:07:13;0.40;99.90
14349;DHT22;7258;50.376;8.742;2022-11-20T06:09:17;0.40;99.90
14349;DHT22;7258;50.376;8.742;2022-11-20T06:11:20;0.50;99.90
14349;DHT22;7258;50.376;8.742;2022-11-20T06:13:23;0.50;99.90
14349;DHT22;7258;50.376;8.742;2022-11-20T06:15:27;0.50;99.90
14349;DHT22;7258;50.376;8.742;2022-11-20T06:17:30;0.50;99.90
14349;DHT22;7258;50.376;8.742;2022-11-20T06:19:33;0.50;99.90
14349;DHT22;7258;50.376;8.742;2022-11-20T06:21:35;0.50;99.90
14349;DHT22;7258;50.376;8.742;2022-11-20T06:23:38;0.50;99.90
14349;DHT22;7258;50.376;8.742;2022-11-20T06:25:42;0.50;99.90
14349;DHT22;7258;50.376;8.742;2022-11-20T06:27:45;0.50;99.90
14349;DHT22;7258;50.376;8.742;2022-11-20T06:29:48;0.50;99.90
14349;DHT22;7258;50.376;8.742;2022-11-20T06:31:52;0.50;99.90
14349;DHT22;7258;50.376;8.742;2022-11-20T06:33:55;0.50;99.90
14349;DHT22;7258;50.376;8.742;2022-11-20T06:35:58;0.50;99.90
14349;DHT22;7258;50.376;8.742;2022-11-20T06:38:10;0.60;99.90
14349;DHT22;7258;50.376;8.742;2022-11-20T06:40:13;0.60;99.90
14349;DHT22;7258;50.376;8.742;2022-11-20T06:42:16;0.60;99.90
14349;DHT22;7258;50.376;8.742;2022-11-20T06:44:19;0.60;99.90
14349;DHT22;7258;50.376;8.742;2022-11-20T06:46:21;0.60;99.90
14349;DHT22;7258;50.376;8.742;2022-11-20T06:48:26;0.60;99.90
14349;DHT22;7258;50.376;8.742;2022-11-20T06:50:29;0.60;99.90
14349;DHT22;7258;50.376;8.742;2022-11-20T06:52:33;0.60;99.90
14349;DHT22;7258;50.376;8.742;2022-11-20T06:54:42;0.70;99.90
14349;DHT22;7258;50.376;8.742;2022-11-20T06:56:46;0.70;99.90
14349;DHT22;7258;50.376;8.742;2022-11-20T06:58:49;0.70;99.90
14349;DHT22;7258;50.376;8.742;2022-11-20T07:00:52;0.70;99.90
14349;DHT22;7258;50.376;8.742;2022-11-20T07:02:55;0.60;99.90
14349;DHT22;7258;50.376;8.742;2022-11-20T07:04:59;0.70;99.90
14349;DHT22;7258;50.376;8.742;2022-11-20T07:07:02;0.60;99.90
14349;DHT22;7258;50.376;8.742;2022-11-20T07:09:05;0.60;99.90
14349;DHT22;7258;50.376;8.742;2022-11-20T07:11:13;0.60;99.90
14349;DHT22;7258;50.376;8.742;2022-11-20T07:13:16;0.60;99.90
14349;DHT22;7258;50.376;8.742;2022-11-20T07:15:20;0.60;99.90
14349;DHT22;7258;50.376;8.742;2022-11-20T07:17:23;0.60;99.90
14349;DHT22;7258;50.376;8.742;2022-11-20T07:19:26;0.60;99.90
14349;DHT22;7258;50.376;8.742;2022-11-20T07:21:30;0.70;99.90
14349;DHT22;7258;50.376;8.742;2022-11-20T07:23:32;0.70;99.90
14349;DHT22;7258;50.376;8.742;2022-11-20T07:25:35;0.70;99.90
14349;DHT22;7258;50.376;8.742;2022-11-20T07:27:38;0.80;99.90
14349;DHT22;7258;50.376;8.742;2022-11-20T07:29:41;0.90;99.90
14349;DHT22;7258;50.376;8.742;2022-11-20T07:31:44;0.90;99.90
14349;DHT22;7258;50.376;8.742;2022-11-20T07:33:46;0.90;99.90
14349;DHT22;7258;50.376;8.742;2022-11-20T07:35:49;0.90;99.90
14349;DHT22;7258;50.376;8.742;2022-11-20T07:37:53;1.00;99.90
14349;DHT22;7258;50.376;8.742;2022-11-20T07:39:56;1.00;99.90
14349;DHT22;7258;50.376;8.742;2022-11-20T07:41:59;1.00;99.90
14349;DHT22;7258;50.376;8.742;2022-11-20T07:44:02;1.00;99.90
14349;DHT22;7258;50.376;8.742;2022-11-20T07:46:04;1.00;99.90
14349;DHT22;7258;50.376;8.742;2022-11-20T07:48:07;0.90;99.90
14349;DHT22;7258;50.376;8.742;2022-11-20T07:50:11;0.90;99.90
14349;DHT22;7258;50.376;8.742;2022-11-20T07:52:13;1.00;99.90
14349;DHT22;7258;50.376;8.742;2022-11-20T07:54:18;1.00;99.90
14349;DHT22;7258;50.376;8.742;2022-11-20T07:56:20;1.00;99.90
14349;DHT22;7258;50.376;8.742;2022-11-20T07:58:23;1.10;99.90
14349;DHT22;7258;50.376;8.742;2022-11-20T08:00:27;1.10;99.90
14349;DHT22;7258;50.376;8.742;2022-11-20T08:02:30;1.10;99.90
14349;DHT22;7258;50.376;8.742;2022-11-20T08:04:33;1.10;99.90
14349;DHT22;7258;50.376;8.742;2022-11-20T08:06:36;1.20;99.90
14349;DHT22;7258;50.376;8.742;2022-11-20T08:08:39;1.30;99.90
14349;DHT22;7258;50.376;8.742;2022-11-20T08:10:45;1.30;99.90
14349;DHT22;7258;50.376;8.742;2022-11-20T08:12:49;1.30;99.90
14349;DHT22;7258;50.376;8.742;2022-11-20T08:15:10;1.40;99.90
14349;DHT22;7258;50.376;8.742;2022-11-20T08:17:14;1.40;99.90
14349;DHT22;7258;50.376;8.742;2022-11-20T08:19:18;1.50;99.90
14349;DHT22;7258;50.376;8.742;2022-11-20T08:21:22;1.50;99.90
14349;DHT22;7258;50.376;8.742;2022-11-20T08:23:25;1.60;99.90
14349;DHT22;7258;50.376;8.742;2022-11-20T08:25:29;1.60;99.90
14349;DHT22;7258;50.376;8.742;2022-11-20T08:27:33;1.70;99.90
14349;DHT22;7258;50.376;8.742;2022-11-20T08:29:39;1.80;99.90
14349;DHT22;7258;50.376;8.742;2022-11-20T08:31:42;1.90;99.90
14349;DHT22;7258;50.376;8.742;2022-11-20T08:33:45;2.10;99.90
14349;DHT22;7258;50.376;8.742;2022-11-20T08:35:48;2.20;99.90
14349;DHT22;7258;50.376;8.742;2022-11-20T08:37:50;2.30;99.90
14349;DHT22;7258;50.376;8.742;2022-11-20T08:39:53;2.40;99.90
14349;DHT22;7258;50.376;8.742;2022-11-20T08:41:58;2.40;99.90
14349;DHT22;7258;50.376;8.742;2022-11-20T08:44:04;2.40;99.90
14349;DHT22;7258;50.376;8.742;2022-11-20T08:46:08;2.50;99.90
14349;DHT22;7258;50.376;8.742;2022-11-20T08:48:10;2.60;99.90
14349;DHT22;7258;50.376;8.742;2022-11-20T08:50:15;2.70;99.90
14349;DHT22;7258;50.376;8.742;2022-11-20T08:52:18;2.80;99.90
14349;DHT22;7258;50.376;8.742;2022-11-20T08:54:21;2.80;99.90
14349;DHT22;7258;50.376;8.742;2022-11-20T08:56:24;2.90;99.90
14349;DHT22;7258;50.376;8.742;2022-11-20T08:58:27;2.90;99.90
14349;DHT22;7258;50.376;8.742;2022-11-20T09:00:34;2.90;99.90
14349;DHT22;7258;50.376;8.742;2022-11-20T09:02:36;3.00;99.90
14349;DHT22;7258;50.376;8.742;2022-11-20T09:04:39;3.00;99.90
14349;DHT22;7258;50.376;8.742;2022-11-20T09:06:42;3.00;99.90
14349;DHT22;7258;50.376;8.742;2022-11-20T09:08:45;3.10;99.90
14349;DHT22;7258;50.376;8.742;2022-11-20T09:10:51;3.10;99.90
14349;DHT22;7258;50.376;8.742;2022-11-20T09:12:54;3.10;99.90
14349;DHT22;7258;50.376;8.742;2022-11-20T09:14:57;3.10;99.90
14349;DHT22;7258;50.376;8.742;2022-11-20T09:17:02;3.10;99.90
14349;DHT22;7258;50.376;8.742;2022-11-20T09:19:05;3.10;99.90
14349;DHT22;7258;50.376;8.742;2022-11-20T09:21:27;3.20;99.90
14349;DHT22;7258;50.376;8.742;2022-11-20T09:23:32;3.20;99.90
14349;DHT22;7258;50.376;8.742;2022-11-20T09:25:35;3.30;99.90
14349;DHT22;7258;50.376;8.742;2022-11-20T09:27:38;3.30;99.90
14349;DHT22;7258;50.376;8.742;2022-11-20T09:29:42;3.30;99.90
14349;DHT22;7258;50.376;8.742;2022-11-20T09:31:45;3.30;99.90
14349;DHT22;7258;50.376;8.742;2022-11-20T09:33:49;3.40;99.90
14349;DHT22;7258;50.376;8.742;2022-11-20T09:35:52;3.50;99.90
14349;DHT22;7258;50.376;8.742;2022-11-20T09:37:55;3.60;99.90
14349;DHT22;7258;50.376;8.742;2022-11-20T09:39:58;3.60;99.90
14349;DHT22;7258;50.376;8.742;2022-11-20T09:42:16;3.60;99.90
14349;DHT22;7258;50.376;8.742;2022-11-20T09:44:34;3.60;99.90
14349;DHT22;7258;50.376;8.742;2022-11-20T09:46:45;3.70;99.90
14349;DHT22;7258;50.376;8.742;2022-11-20T09:49:15;3.80;99.90
14349;DHT22;7258;50.376;8.742;2022-11-20T09:51:36;3.90;99.90
14349;DHT22;7258;50.376;8.742;2022-11-20T09:53:50;3.90;99.90
14349;DHT22;7258;50.376;8.742;2022-11-20T09:55:55;4.00;99.90
14349;DHT22;7258;50.376;8.742;2022-11-20T09:57:59;4.10;99.90
14349;DHT22;7258;50.376;8.742;2022-11-20T10:00:05;4.10;99.90
14349;DHT22;7258;50.376;8.742;2022-11-20T10:02:16;4.10;99.90
14349;DHT22;7258;50.376;8.742;2022-11-20T10:04:22;4.20;99.90
14349;DHT22;7258;50.376;8.742;2022-11-20T10:06:30;4.20;99.90
14349;DHT22;7258;50.376;8.742;2022-11-20T10:08:40;4.30;99.90
14349;DHT22;7258;50.376;8.742;2022-11-20T10:10:46;4.20;99.90
14349;DHT22;7258;50.376;8.742;2022-11-20T10:13:05;4.20;99.90
14349;DHT22;7258;50.376;8.742;2022-11-20T10:15:22;4.10;99.90
14349;DHT22;7258;50.376;8.742;2022-11-20T10:17:51;4.00;99.90
14349;DHT22;7258;50.376;8.742;2022-11-20T10:20:08;3.90;99.90
14349;DHT22;7258;50.376;8.742;2022-11-20T10:22:24;3.80;99.90
14349;DHT22;7258;50.376;8.742;2022-11-20T10:24:43;3.80;99.90
14349;DHT22;7258;50.376;8.742;2022-11-20T10:26:55;3.70;99.90
14349;DHT22;7258;50.376;8.742;2022-11-20T10:29:09;3.70;99.90
14349;DHT22;7258;50.376;8.742;2022-11-20T10:31:21;3.60;99.90
14349;DHT22;7258;50.376;8.742;2022-11-20T10:33:31;3.60;99.90
14349;DHT22;7258;50.376;8.742;2022-11-20T10:36:05;3.60;99.90
14349;DHT22;7258;50.376;8.742;2022-11-20T10:38:14;3.60;99.90
14349;DHT22;7258;50.376;8.742;2022-11-20T10:40:23;3.60;99.90
14349;DHT22;7258;50.376;8.742;2022-11-20T10:42:34;3.50;99.90
14349;DHT22;7258;50.376;8.742;2022-11-20T10:44:39;3.40;99.90
14349;DHT22;7258;50.376;8.742;2022-11-20T10:47:12;3.30;99.90
14349;DHT22;7258;50.376;8.742;2022-11-20T10:49:18;3.30;99.90
14349;DHT22;7258;50.376;8.742;2022-11-20T10:51:31;3.20;99.90
14349;DHT22;7258;50.376;8.742;2022-11-20T10:53:48;3.30;99.90
14349;DHT22;7258;50.376;8.742;2022-11-20T10:55:56;3.50;99.90
14349;DHT22;7258;50.376;8.742;2022-11-20T10:58:05;3.70;99.90
14349;DHT22;7258;50.376;8.742;2022-11-20T11:00:13;3.80;99.90
14349;DHT22;7258;50.376;8.742;2022-11-20T11:02:20;3.80;99.90
14349;DHT22;7258;50.376;8.742;2022-11-20T11:04:39;3.70;99.90
14349;DHT22;7258;50.376;8.742;2022-11-20T11:06:47;3.70;99.90
14349;DHT22;7258;50.376;8.742;2022-11-20T11:08:51;3.70;99.90
14349;DHT22;7258;50.376;8.742;2022-11-20T11:10:57;3.70;99.90
14349;DHT22;7258;50.376;8.742;2022-11-20T11:13:01;3.70;99.90
14349;DHT22;7258;50.376;8.742;2022-11-20T11:15:05;3.70;99.90
14349;DHT22;7258;50.376;8.742;2022-11-20T11:17:22;3.70;99.90
14349;DHT22;7258;50.376;8.742;2022-11-20T11:19:27;3.70;99.90
14349;DHT22;7258;50.376;8.742;2022-11-20T11:21:29;3.60;99.90
14349;DHT22;7258;50.376;8.742;2022-11-20T11:23:34;3.60;99.90
14349;DHT22;7258;50.376;8.742;2022-11-20T11:25:38;3.60;99.90
14349;DHT22;7258;50.376;8.742;2022-11-20T11:27:46;3.60;99.90
14349;DHT22;7258;50.376;8.742;2022-11-20T11:29:49;3.60;99.90
14349;DHT22;7258;50.376;8.742;2022-11-20T11:32:03;3.60;99.90
14349;DHT22;7258;50.376;8.742;2022-11-20T11:34:07;3.70;99.90
14349;DHT22;7258;50.376;8.742;2022-11-20T11:36:18;3.80;99.90
14349;DHT22;7258;50.376;8.742;2022-11-20T11:38:28;3.90;99.90
14349;DHT22;7258;50.376;8.742;2022-11-20T11:40:35;3.90;99.90
14349;DHT22;7258;50.376;8.742;2022-11-20T11:42:42;3.90;99.90
14349;DHT22;7258;50.376;8.742;2022-11-20T11:44:47;4.00;99.90
14349;DHT22;7258;50.376;8.742;2022-11-20T11:47:11;4.00;99.90
14349;DHT22;7258;50.376;8.742;2022-11-20T11:49:16;3.90;99.90
14349;DHT22;7258;50.376;8.742;2022-11-20T11:51:20;3.80;99.90
14349;DHT22;7258;50.376;8.742;2022-11-20T11:53:25;3.70;99.90
14349;DHT22;7258;50.376;8.742;2022-11-20T11:55:33;3.60;99.90
14349;DHT22;7258;50.376;8.742;2022-11-20T11:57:43;3.60;99.90
14349;DHT22;7258;50.376;8.742;2022-11-20T11:59:59;3.60;99.90
14349;DHT22;7258;50.376;8.742;2022-11-20T12:02:15;3.60;99.90
14349;DHT22;7258;50.376;8.742;2022-11-20T12:04:40;3.60;99.90
14349;DHT22;7258;50.376;8.742;2022-11-20T12:06:51;3.60;99.90
14349;DHT22;7258;50.376;8.742;2022-11-20T12:08:58;3.60;99.90
14349;DHT22;7258;50.376;8.742;2022-11-20T12:11:09;3.50;99.90
14349;DHT22;7258;50.376;8.742;2022-11-20T12:13:35;3.60;99.90
14349;DHT22;7258;50.376;8.742;2022-11-20T12:15:44;3.60;99.90
14349;DHT22;7258;50.376;8.742;2022-11-20T12:17:47;3.60;99.90
14349;DHT22;7258;50.376;8.742;2022-11-20T12:19:51;3.70;99.90
14349;DHT22;7258;50.376;8.742;2022-11-20T12:21:57;3.70;99.90
14349;DHT22;7258;50.376;8.742;2022-11-20T12:24:33;3.80;99.90
14349;DHT22;7258;50.376;8.742;2022-11-20T12:26:54;3.90;99.90
14349;DHT22;7258;50.376;8.742;2022-11-20T12:29:07;4.00;99.90
14349;DHT22;7258;50.376;8.742;2022-11-20T12:31:27;4.10;99.90
14349;DHT22;7258;50.376;8.742;2022-11-20T12:33:44;4.10;99.90
14349;DHT22;7258;50.376;8.742;2022-11-20T12:36:03;4.00;99.90
14349;DHT22;7258;50.376;8.742;2022-11-20T12:38:26;3.90;99.90
14349;DHT22;7258;50.376;8.742;2022-11-20T12:40:38;3.80;99.90
14349;DHT22;7258;50.376;8.742;2022-11-20T12:42:54;3.70;99.90
14349;DHT22;7258;50.376;8.742;2022-11-20T12:45:31;3.70;99.90
14349;DHT22;7258;50.376;8.742;2022-11-20T12:47:54;3.60;99.90
14349;DHT22;7258;50.376;8.742;2022-11-20T12:50:04;3.60;99.90
14349;DHT22;7258;50.376;8.742;2022-11-20T12:52:20;3.50;99.90
14349;DHT22;7258;50.376;8.742;2022-11-20T12:54:51;3.40;99.90
14349;DHT22;7258;50.376;8.742;2022-11-20T12:57:03;3.50;99.90
14349;DHT22;7258;50.376;8.742;2022-11-20T12:59:32;3.60;99.90
14349;DHT22;7258;50.376;8.742;2022-11-20T13:01:40;3.70;99.90
14349;DHT22;7258;50.376;8.742;2022-11-20T13:03:50;3.70;99.90
14349;DHT22;7258;50.376;8.742;2022-11-20T13:06:01;3.80;99.90
14349;DHT22;7258;50.376;8.742;2022-11-20T13:08:11;3.80;99.90
14349;DHT22;7258;50.376;8.742;2022-11-20T13:10:22;3.80;99.90
14349;DHT22;7258;50.376;8.742;2022-11-20T13:12:33;3.80;99.90
14349;DHT22;7258;50.376;8.742;2022-11-20T13:14:42;3.80;99.90
14349;DHT22;7258;50.376;8.742;2022-11-20T13:16:51;3.70;99.90
14349;DHT22;7258;50.376;8.742;2022-11-20T13:18:56;3.70;99.90
14349;DHT22;7258;50.376;8.742;2022-11-20T13:21:13;3.70;99.90
14349;DHT22;7258;50.376;8.742;2022-11-20T13:23:24;3.70;99.90
14349;DHT22;7258;50.376;8.742;2022-11-20T13:25:29;3.70;99.90
14349;DHT22;7258;50.376;8.742;2022-11-20T13:27:32;3.70;99.90
14349;DHT22;7258;50.376;8.742;2022-11-20T13:29:37;3.70;99.90
14349;DHT22;7258;50.376;8.742;2022-11-20T13:31:43;3.70;99.90
14349;DHT22;7258;50.376;8.742;2022-11-20T13:33:52;3.70;99.90
14349;DHT22;7258;50.376;8.742;2022-11-20T13:36:00;3.70;99.90
14349;DHT22;7258;50.376;8.742;2022-11-20T13:38:06;3.70;99.90
14349;DHT22;7258;50.376;8.742;2022-11-20T13:40:19;3.70;99.90
14349;DHT22;7258;50.376;8.742;2022-11-20T13:42:27;3.70;99.90
14349;DHT22;7258;50.376;8.742;2022-11-20T13:44:36;3.70;99.90
14349;DHT22;7258;50.376;8.742;2022-11-20T13:46:43;3.60;99.90
14349;DHT22;7258;50.376;8.742;2022-11-20T13:48:46;3.60;99.90
14349;DHT22;7258;50.376;8.742;2022-11-20T13:51:02;3.50;99.90
14349;DHT22;7258;50.376;8.742;2022-11-20T13:53:21;3.50;99.90
14349;DHT22;7258;50.376;8.742;2022-11-20T13:55:33;3.40;99.90